»·PEaware :: VRD1599 KPSP-KSFO

VRD1599 :: KPSP-KSFO

FLIGHT INFORMATION

Flight Status: Arrived
Operator:
Virgin America
More flights by this operator :: More flights under this callsign
Pilot: Justin S. (10202)
Aircraft: AIRBUS A320
(A320)
More flights by this aircraft type
Origin: KPSP Palm Springs Intl
United States
Destination: KSFO San Francisco Intl
United States
More flights between these airports :: More routes between these airports
Route: +CATH1 PSP V386 PMD MAKRS SERFR SERFR2
File this flight plan on PilotEdge
Remarks:
Altitude:
(Current/Filed)
36,000ft
Speed:
(Current/Filed)
367kts
Departed: 07-Jan-18 08:22 PM
Arrived: 07-Jan-18 09:33 PM
Distance/Time
Traveled:
365nm/1:11
Distance/Time
To Go:
Arrived

Flight Plot

Page will automatically refresh every two minutes.

Flight plan parsing failed; only flown route is shown


Map Options




Map Legend


Flown Route
Filed Route
Departure Airport
Arrival Airport
Navaid (VOR, NDB)
Fix

Horizontal Profiles

Position Reports

Time Latitude Longitude Heading Altitude Ground
Speed
07-Jan-18 20:08 33.823417 -116.505902 245 491ft 0kts
07-Jan-18 20:09 33.823417 -116.505902 245 491ft 0kts
07-Jan-18 20:10 33.823417 -116.505902 245 491ft 0kts
07-Jan-18 20:11 33.823417 -116.505902 245 491ft 0kts
07-Jan-18 20:12 33.823417 -116.505902 245 491ft 0kts
07-Jan-18 20:13 33.823417 -116.505902 245 491ft 0kts
07-Jan-18 20:14 33.823417 -116.505902 245 491ft 0kts
07-Jan-18 20:15 33.823417 -116.505902 245 491ft 0kts
07-Jan-18 20:16 33.823417 -116.505902 245 491ft 0kts
07-Jan-18 20:17 33.823417 -116.505902 245 491ft 0kts
07-Jan-18 20:18 33.823560 -116.505600 226 491ft 2kts
07-Jan-18 20:19 33.823982 -116.505537 143 491ft 0kts
07-Jan-18 20:20 33.823981 -116.505537 143 491ft 0kts
07-Jan-18 20:21 33.823981 -116.505536 143 491ft 0kts
07-Jan-18 20:22 33.823981 -116.505536 143 491ft 0kts
07-Jan-18 20:23 33.823787 -116.505365 143 491ft 2kts
07-Jan-18 20:24 33.822793 -116.503593 141 491ft 14kts
07-Jan-18 20:25 33.818948 -116.500155 143 491ft 18kts
07-Jan-18 20:26 33.818483 -116.498944 92 491ft 0kts
07-Jan-18 20:27 33.818963 -116.498131 336 491ft 8kts
07-Jan-18 20:28 33.840931 -116.517953 322 1220ft 164kts
07-Jan-18 20:29 33.880880 -116.549857 357 3430ft 194kts
07-Jan-18 20:30 33.889490 -116.489662 118 5047ft 267kts
07-Jan-18 20:31 33.860080 -116.405286 116 8221ft 281kts
07-Jan-18 20:32 33.843426 -116.315205 58 10519ft 313kts
07-Jan-18 20:33 33.926061 -116.297874 330 11870ft 361kts
07-Jan-18 20:34 34.015093 -116.359107 331 14212ft 374kts
07-Jan-18 20:35 34.108650 -116.419451 331 16316ft 388kts
07-Jan-18 20:36 34.205245 -116.482623 331 18262ft 402kts
07-Jan-18 20:37 34.304883 -116.547822 330 20193ft 409kts
07-Jan-18 20:38 34.405807 -116.614201 330 21944ft 417kts
07-Jan-18 20:39 34.494076 -116.703487 298 23524ft 420kts
07-Jan-18 20:40 34.519084 -116.840888 275 25187ft 420kts
07-Jan-18 20:41 34.532511 -116.981642 276 26662ft 422kts
07-Jan-18 20:42 34.545815 -117.121906 275 28471ft 413kts
07-Jan-18 20:43 34.558660 -117.258066 274 30274ft 400kts
07-Jan-18 20:44 34.570903 -117.389619 274 32077ft 385kts
07-Jan-18 20:45 34.582840 -117.519466 273 32704ft 397kts
07-Jan-18 20:46 34.594951 -117.652235 273 33871ft 390kts
07-Jan-18 20:47 34.606591 -117.782216 272 34843ft 385kts
07-Jan-18 20:48 34.618004 -117.910749 273 35646ft 381kts
07-Jan-18 20:49 34.629668 -118.038012 275 36215ft 382kts
07-Jan-18 20:50 34.675411 -118.157114 293 36216ft 395kts
07-Jan-18 20:51 34.730400 -118.272132 292 36217ft 393kts
07-Jan-18 20:52 34.785043 -118.387682 292 36261ft 393kts
07-Jan-18 20:53 34.839402 -118.503033 292 36231ft 393kts
07-Jan-18 20:54 34.893628 -118.618602 292 36241ft 393kts
07-Jan-18 20:55 34.947982 -118.734633 292 36249ft 393kts
07-Jan-18 20:56 35.002022 -118.850441 292 36255ft 393kts
07-Jan-18 20:57 35.056274 -118.967141 292 36216ft 395kts
07-Jan-18 20:58 35.110296 -119.083747 292 36227ft 396kts
07-Jan-18 20:59 35.164395 -119.200782 292 36217ft 396kts
07-Jan-18 21:00 35.218472 -119.318339 292 36216ft 395kts
07-Jan-18 21:01 35.272228 -119.435490 292 36207ft 395kts
07-Jan-18 21:02 35.326099 -119.553440 292 36177ft 396kts
07-Jan-18 21:03 35.379739 -119.671112 292 36173ft 396kts
07-Jan-18 21:04 35.433240 -119.789013 292 36141ft 397kts
07-Jan-18 21:05 35.486835 -119.907425 292 36184ft 396kts
07-Jan-18 21:06 35.540052 -120.025688 292 36147ft 397kts
07-Jan-18 21:07 35.593581 -120.144647 292 36121ft 399kts
07-Jan-18 21:08 35.647152 -120.264378 291 36194ft 399kts
07-Jan-18 21:09 35.698587 -120.384769 288 36197ft 396kts
07-Jan-18 21:10 35.745398 -120.507912 288 36194ft 396kts
07-Jan-18 21:11 35.792280 -120.630570 288 36189ft 396kts
07-Jan-18 21:12 35.839027 -120.753748 287 36166ft 397kts
07-Jan-18 21:13 35.885853 -120.877549 287 36182ft 397kts
07-Jan-18 21:14 35.932342 -121.001014 287 36132ft 397kts
07-Jan-18 21:15 35.979016 -121.125463 287 35081ft 402kts
07-Jan-18 21:16 36.026176 -121.251629 286 34090ft 408kts
07-Jan-18 21:17 36.083523 -121.374353 308 32530ft 432kts
07-Jan-18 21:18 36.188103 -121.457484 320 29821ft 452kts
07-Jan-18 21:19 36.293428 -121.540564 321 27051ft 447kts
07-Jan-18 21:20 36.398138 -121.622461 323 24327ft 440kts
07-Jan-18 21:21 36.499756 -121.702544 323 22438ft 414kts
07-Jan-18 21:22 36.578752 -121.765011 323 20737ft 398kts
07-Jan-18 21:23 36.686840 -121.850674 323 18317ft 392kts
07-Jan-18 21:24 36.783423 -121.907054 345 17083ft 385kts
07-Jan-18 21:25 36.887131 -121.934549 345 15268ft 377kts
07-Jan-18 21:26 36.987033 -121.966431 340 13379ft 362kts
07-Jan-18 21:27 37.064694 -121.997059 340 12295ft 332kts
07-Jan-18 21:28 37.148533 -122.029826 340 10491ft 306kts
07-Jan-18 21:29 37.241101 -122.066114 340 8016ft 293kts
07-Jan-18 21:30 37.305305 -122.091385 341 6500ft 287kts
07-Jan-18 21:31 37.377689 -122.120405 342 5384ft 247kts
07-Jan-18 21:32 37.437547 -122.143858 342 4534ft 210kts
07-Jan-18 21:33 37.493610 -122.162506 349 3349ft 205kts
07-Jan-18 21:34 37.539266 -122.185624 300 2993ft 163kts
07-Jan-18 21:35 37.559642 -122.234314 298 2214ft 154kts
07-Jan-18 21:36 37.579180 -122.280805 297 1414ft 140kts
07-Jan-18 21:37 37.597430 -122.324223 299 677ft 139kts
07-Jan-18 21:38 37.615434 -122.367166 298 29ft 127kts
07-Jan-18 21:39 37.622161 -122.384738 268 27ft 8kts
07-Jan-18 21:40 37.621763 -122.386242 199 27ft 6kts
07-Jan-18 21:41 37.619939 -122.382651 118 27ft 14kts
07-Jan-18 21:42 37.618365 -122.382018 140 27ft 3kts
07-Jan-18 21:43 37.618341 -122.381992 138 27ft 0kts
07-Jan-18 21:44 37.618341 -122.381992 138 27ft 0kts
07-Jan-18 21:45 37.618341 -122.381992 138 27ft 0kts
07-Jan-18 21:46 37.618341 -122.381992 138 27ft 0kts
07-Jan-18 21:47 37.618341 -122.381992 138 27ft 0kts
07-Jan-18 21:48 37.618341 -122.381992 138 27ft 0kts

Navigation Log

Ident Type
Flight plan parsing failed, navigation log unavailable